createdAt,value
2018-05-12T00:00:33.332Z,1011.61
2018-05-12T00:01:33.386Z,1011.61
2018-05-12T00:02:33.316Z,1011.62
2018-05-12T00:03:33.320Z,1011.53
2018-05-12T00:04:33.430Z,1011.60
2018-05-12T00:05:33.375Z,1011.53
2018-05-12T00:06:33.330Z,1011.52
2018-05-12T00:07:33.347Z,1011.52
2018-05-12T00:08:33.341Z,1011.54
2018-05-12T00:09:33.344Z,1011.54
2018-05-12T00:10:33.350Z,1011.51
2018-05-12T00:11:33.372Z,1011.50
2018-05-12T00:12:33.362Z,1011.50
2018-05-12T00:13:33.352Z,1011.53
2018-05-12T00:14:33.377Z,1011.53
2018-05-12T00:15:33.370Z,1011.48
2018-05-12T00:16:33.356Z,1011.49
2018-05-12T00:17:33.376Z,1011.49
2018-05-12T00:18:33.372Z,1011.48
2018-05-12T00:19:33.375Z,1011.45
2018-05-12T00:20:33.375Z,1011.46
2018-05-12T00:21:33.387Z,1011.46
2018-05-12T00:22:33.407Z,1011.43
2018-05-12T00:23:33.376Z,1011.46
2018-05-12T00:24:33.382Z,1011.44
2018-05-12T00:25:33.378Z,1011.48
2018-05-12T00:26:33.385Z,1011.47
2018-05-12T00:27:33.398Z,1011.44
2018-05-12T00:28:33.390Z,1011.45
2018-05-12T00:29:33.406Z,1011.43
2018-05-12T00:30:33.410Z,1011.40
2018-05-12T00:31:33.404Z,1011.44
2018-05-12T00:32:33.410Z,1011.44
2018-05-12T00:33:33.430Z,1011.42
2018-05-12T00:34:33.408Z,1011.44
2018-05-12T00:35:33.432Z,1011.42
2018-05-12T00:36:33.420Z,1011.42
2018-05-12T00:37:33.422Z,1011.37
2018-05-12T00:38:33.430Z,1011.38
2018-05-12T00:39:33.423Z,1011.35
2018-05-12T00:40:33.420Z,1011.34
2018-05-12T00:41:33.431Z,1011.36
2018-05-12T00:42:33.430Z,1011.36
2018-05-12T00:43:33.431Z,1011.33
2018-05-12T00:44:33.462Z,1011.35
2018-05-12T00:45:33.455Z,1011.36
2018-05-12T00:46:33.449Z,1011.37
2018-05-12T00:47:33.437Z,1011.38
2018-05-12T00:48:34.006Z,1011.35
2018-05-12T00:49:33.446Z,1011.37
2018-05-12T00:50:33.454Z,1011.45
2018-05-12T00:51:33.452Z,1011.34
2018-05-12T00:52:33.481Z,1011.35
2018-05-12T00:53:33.456Z,1011.36
2018-05-12T00:54:33.475Z,1011.33
2018-05-12T00:55:33.494Z,1011.36
2018-05-12T00:56:33.467Z,1011.34
2018-05-12T00:57:33.477Z,1011.33
2018-05-12T00:58:33.611Z,1011.30
2018-05-12T00:59:33.496Z,1011.33
2018-05-12T01:00:33.473Z,1011.29
2018-05-12T01:01:33.556Z,1011.28
2018-05-12T01:02:33.497Z,1011.25
2018-05-12T01:03:34.008Z,1011.30
2018-05-12T01:04:33.505Z,1011.25
2018-05-12T01:05:33.512Z,1011.28
2018-05-12T01:06:33.499Z,1011.30
2018-05-12T01:07:33.504Z,1011.22
2018-05-12T01:08:33.520Z,1011.30
2018-05-12T01:09:33.523Z,1011.26
2018-05-12T01:10:33.539Z,1011.25
2018-05-12T01:11:33.522Z,1011.23
2018-05-12T01:12:33.513Z,1011.24
2018-05-12T01:13:33.618Z,1011.22
2018-05-12T01:14:33.525Z,1011.20
2018-05-12T01:15:33.528Z,1011.17
2018-05-12T01:16:33.551Z,1011.20
2018-05-12T01:17:33.528Z,1011.17
2018-05-12T01:18:33.544Z,1011.21
2018-05-12T01:19:33.531Z,1011.17
2018-05-12T01:20:33.542Z,1011.13
2018-05-12T01:21:33.561Z,1011.15
2018-05-12T01:22:33.545Z,1011.14
2018-05-12T01:23:33.540Z,1011.17
2018-05-12T01:24:33.565Z,1011.14
2018-05-12T01:25:33.554Z,1011.15
2018-05-12T01:26:33.554Z,1011.16
2018-05-12T01:27:33.561Z,1011.13
2018-05-12T01:28:33.556Z,1011.12
2018-05-12T01:29:33.571Z,1011.11
2018-05-12T01:30:33.570Z,1011.09
2018-05-12T01:31:33.574Z,1011.12
2018-05-12T01:32:33.583Z,1011.10
2018-05-12T01:33:33.573Z,1011.12
2018-05-12T01:34:33.568Z,1011.11
2018-05-12T01:35:33.594Z,1011.12
2018-05-12T01:36:33.589Z,1011.08
2018-05-12T01:37:33.584Z,1011.10
2018-05-12T01:38:33.590Z,1011.07
2018-05-12T01:39:33.593Z,1011.06
2018-05-12T01:40:33.613Z,1011.08
2018-05-12T01:41:33.595Z,1011.06
2018-05-12T01:42:34.525Z,1011.06
2018-05-12T01:43:33.599Z,1011.10
2018-05-12T01:44:33.637Z,1011.09
2018-05-12T01:45:33.610Z,1011.10
2018-05-12T01:46:33.597Z,1011.08
2018-05-12T01:47:33.619Z,1011.10
2018-05-12T01:48:33.606Z,1011.12
2018-05-12T01:49:33.611Z,1011.10
2018-05-12T01:50:33.618Z,1011.14
2018-05-12T01:51:33.622Z,1011.12
2018-05-12T01:52:33.625Z,1011.13
2018-05-12T01:53:33.624Z,1011.08
2018-05-12T01:54:33.642Z,1011.13
2018-05-12T01:55:33.650Z,1011.13
2018-05-12T01:56:33.643Z,1011.12
2018-05-12T01:57:34.528Z,1011.16
2018-05-12T01:58:33.637Z,1011.14
2018-05-12T01:59:33.641Z,1011.13
2018-05-12T02:00:33.656Z,1011.13
2018-05-12T02:01:33.652Z,1011.15
2018-05-12T02:02:33.661Z,1011.16
2018-05-12T02:03:33.673Z,1011.15
2018-05-12T02:04:33.683Z,1011.20
2018-05-12T02:05:33.656Z,1011.18
2018-05-12T02:06:33.680Z,1011.16
2018-05-12T02:07:33.651Z,1011.18
2018-05-12T02:08:33.678Z,1011.15
2018-05-12T02:09:33.667Z,1011.16
2018-05-12T02:10:34.531Z,1011.19
2018-05-12T02:11:33.673Z,1011.18
2018-05-12T02:12:33.708Z,1011.20
2018-05-12T02:13:33.682Z,1011.20
2018-05-12T02:14:33.686Z,1011.21
2018-05-12T02:15:33.681Z,1011.21
2018-05-12T02:16:33.688Z,1011.27
2018-05-12T02:17:33.694Z,1011.26
2018-05-12T02:18:33.704Z,1011.25
2018-05-12T02:19:33.689Z,1011.24
2018-05-12T02:20:33.695Z,1011.24
2018-05-12T02:21:33.703Z,1011.26
2018-05-12T02:22:33.709Z,1011.26
2018-05-12T02:23:33.712Z,1011.23
2018-05-12T02:24:33.709Z,1011.23
2018-05-12T02:25:33.707Z,1011.22
2018-05-12T02:26:33.727Z,1011.24
2018-05-12T02:27:33.721Z,1011.21
2018-05-12T02:28:33.717Z,1011.20
2018-05-12T02:29:33.738Z,1011.19
2018-05-12T02:30:33.718Z,1011.21
2018-05-12T02:31:33.730Z,1011.18
2018-05-12T02:32:33.732Z,1011.18
2018-05-12T02:33:33.836Z,1011.16
2018-05-12T02:34:33.738Z,1011.17
2018-05-12T02:35:33.755Z,1011.12
2018-05-12T02:36:33.749Z,1011.12
2018-05-12T02:37:33.736Z,1011.13
2018-05-12T02:38:33.740Z,1011.15
2018-05-12T02:39:33.765Z,1011.16
2018-05-12T02:40:33.746Z,1011.12
2018-05-12T02:41:33.746Z,1011.13
2018-05-12T02:42:33.759Z,1011.15
2018-05-12T02:43:33.756Z,1011.13
2018-05-12T02:44:33.758Z,1011.11
2018-05-12T02:45:33.765Z,1011.09
2018-05-12T02:46:33.768Z,1011.10
2018-05-12T02:47:33.771Z,1011.12
2018-05-12T02:48:33.778Z,1011.07
2018-05-12T02:49:33.777Z,1011.04
2018-05-12T02:50:33.829Z,1011.05
2018-05-12T02:51:33.861Z,1011.05
2018-05-12T02:52:33.796Z,1011.06
2018-05-12T02:53:33.781Z,1011.01
2018-05-12T02:54:33.799Z,1011.04
2018-05-12T02:55:33.788Z,1011.03
2018-05-12T02:56:33.785Z,1010.99
2018-05-12T02:57:33.792Z,1010.97
2018-05-12T02:58:33.803Z,1010.99
2018-05-12T02:59:33.817Z,1010.97
2018-05-12T03:00:33.807Z,1010.98
2018-05-12T03:01:35.064Z,1010.99
2018-05-12T03:02:33.813Z,1010.98
2018-05-12T03:03:33.805Z,1011.00
2018-05-12T03:04:33.841Z,1011.00
2018-05-12T03:05:33.813Z,1010.98
2018-05-12T03:06:33.838Z,1010.98
2018-05-12T03:07:33.828Z,1010.98
2018-05-12T03:08:33.833Z,1010.95
2018-05-12T03:09:33.829Z,1010.99
2018-05-12T03:10:33.840Z,1010.98
2018-05-12T03:11:33.839Z,1011.01
2018-05-12T03:12:33.840Z,1010.99
2018-05-12T03:13:33.835Z,1011.00
2018-05-12T03:14:34.557Z,1010.99
2018-05-12T03:15:33.844Z,1010.96
2018-05-12T03:16:33.851Z,1010.98
2018-05-12T03:17:33.879Z,1010.98
2018-05-12T03:18:33.844Z,1010.99
2018-05-12T03:19:33.861Z,1010.99
2018-05-12T03:20:33.858Z,1011.02
2018-05-12T03:21:33.857Z,1010.97
2018-05-12T03:22:33.858Z,1010.94
2018-05-12T03:23:33.855Z,1010.94
2018-05-12T03:24:33.859Z,1011.01
2018-05-12T03:25:33.863Z,1010.99
2018-05-12T03:26:33.870Z,1011.03
2018-05-12T03:27:33.905Z,1011.01
2018-05-12T03:28:33.870Z,1010.99
2018-05-12T03:29:33.880Z,1010.99
2018-05-12T03:30:33.884Z,1011.02
2018-05-12T03:31:33.892Z,1011.02
2018-05-12T03:32:33.889Z,1011.02
2018-05-12T03:33:33.896Z,1011.02
2018-05-12T03:34:33.909Z,1011.02
2018-05-12T03:35:33.894Z,1011.03
2018-05-12T03:36:33.891Z,1011.00
2018-05-12T03:37:33.978Z,1011.01
2018-05-12T03:38:33.914Z,1010.97
2018-05-12T03:39:33.908Z,1010.99
2018-05-12T03:40:33.906Z,1010.97
2018-05-12T03:41:33.908Z,1010.95
2018-05-12T03:42:33.916Z,1011.00
2018-05-12T03:43:33.919Z,1011.01
2018-05-12T03:44:33.912Z,1010.98
2018-05-12T03:45:33.952Z,1011.02
2018-05-12T03:46:33.920Z,1011.01
2018-05-12T03:47:33.927Z,1011.01
2018-05-12T03:48:33.925Z,1011.01
2018-05-12T03:49:33.925Z,1010.99
2018-05-12T03:50:33.935Z,1011.01
2018-05-12T03:51:33.944Z,1011.00
2018-05-12T03:52:33.930Z,1011.00
2018-05-12T03:53:33.948Z,1011.00
2018-05-12T03:54:33.941Z,1011.00
2018-05-12T03:55:33.956Z,1011.02
2018-05-12T03:56:33.973Z,1011.00
2018-05-12T03:57:33.952Z,1011.05
2018-05-12T03:58:33.985Z,1011.00
2018-05-12T03:59:33.967Z,1011.03
2018-05-12T04:00:33.966Z,1011.09
2018-05-12T04:01:33.953Z,1011.08
2018-05-12T04:02:33.966Z,1011.06
2018-05-12T04:03:33.970Z,1011.12
2018-05-12T04:04:33.969Z,1011.13
2018-05-12T04:05:33.971Z,1011.11
2018-05-12T04:06:33.975Z,1011.10
2018-05-12T04:07:33.975Z,1011.13
2018-05-12T04:08:34.013Z,1011.11
2018-05-12T04:09:33.978Z,1011.12
2018-05-12T04:10:33.980Z,1011.18
2018-05-12T04:11:33.988Z,1011.16
2018-05-12T04:12:34.572Z,1011.17
2018-05-12T04:13:34.000Z,1011.21
2018-05-12T04:14:34.017Z,1011.20
2018-05-12T04:15:33.994Z,1011.16
2018-05-12T04:16:34.011Z,1011.20
2018-05-12T04:17:34.017Z,1011.16
2018-05-12T04:18:34.027Z,1011.17
2018-05-12T04:19:34.011Z,1011.16
2018-05-12T04:20:34.021Z,1011.17
2018-05-12T04:21:35.075Z,1011.14
2018-05-12T04:22:34.018Z,1011.18
2018-05-12T04:23:34.007Z,1011.17
2018-05-12T04:24:34.010Z,1011.18
2018-05-12T04:25:34.022Z,1011.15
2018-05-12T04:26:34.016Z,1011.12
2018-05-12T04:27:34.023Z,1011.21
2018-05-12T04:28:34.030Z,1011.16
2018-05-12T04:29:34.021Z,1011.19
2018-05-12T04:30:34.039Z,1011.19
2018-05-12T04:31:34.057Z,1011.20
2018-05-12T04:32:34.033Z,1011.17
2018-05-12T04:33:34.041Z,1011.22
2018-05-12T04:34:34.053Z,1011.21
2018-05-12T04:35:34.068Z,1011.21
2018-05-12T04:36:34.117Z,1011.19
2018-05-12T04:37:34.045Z,1011.24
2018-05-12T04:38:34.051Z,1011.18
2018-05-12T04:39:34.059Z,1011.22
2018-05-12T04:40:34.046Z,1011.23
2018-05-12T04:41:34.067Z,1011.21
2018-05-12T04:42:34.085Z,1011.23
2018-05-12T04:43:34.065Z,1011.23
2018-05-12T04:44:34.074Z,1011.23
2018-05-12T04:45:34.088Z,1011.25
2018-05-12T04:46:34.062Z,1011.25
2018-05-12T04:47:34.081Z,1011.22
2018-05-12T04:48:34.084Z,1011.28
2018-05-12T04:49:34.144Z,1011.27
2018-05-12T04:50:34.083Z,1011.20
2018-05-12T04:51:34.079Z,1011.21
2018-05-12T04:52:34.580Z,1011.19
2018-05-12T04:53:34.078Z,1011.22
2018-05-12T04:54:34.095Z,1011.21
2018-05-12T04:55:34.096Z,1011.22
2018-05-12T04:56:34.101Z,1011.25
2018-05-12T04:57:34.120Z,1011.25
2018-05-12T04:58:34.121Z,1011.26
2018-05-12T04:59:34.113Z,1011.27
2018-05-12T05:00:34.106Z,1011.32
2018-05-12T05:01:34.125Z,1011.30
2018-05-12T05:02:34.129Z,1011.27
2018-05-12T05:03:34.108Z,1011.28
2018-05-12T05:04:34.115Z,1011.27
2018-05-12T05:05:34.118Z,1011.29
2018-05-12T05:06:34.123Z,1011.31
2018-05-12T05:07:34.124Z,1011.30
2018-05-12T05:08:34.157Z,1011.32
2018-05-12T05:09:34.126Z,1011.30
2018-05-12T05:10:34.124Z,1011.34
2018-05-12T05:11:34.137Z,1011.36
2018-05-12T05:12:34.228Z,1011.33
2018-05-12T05:13:34.140Z,1011.32
2018-05-12T05:14:34.137Z,1011.39
2018-05-12T05:15:34.156Z,1011.34
2018-05-12T05:16:34.141Z,1011.39
2018-05-12T05:17:34.170Z,1011.38
2018-05-12T05:18:34.147Z,1011.39
2018-05-12T05:19:34.147Z,1011.39
2018-05-12T05:20:34.184Z,1011.38
2018-05-12T05:21:34.157Z,1011.43
2018-05-12T05:22:34.165Z,1011.38
2018-05-12T05:23:34.168Z,1011.39
2018-05-12T05:24:34.174Z,1011.42
2018-05-12T05:25:35.096Z,1011.36
2018-05-12T05:26:34.173Z,1011.35
2018-05-12T05:27:34.178Z,1011.36
2018-05-12T05:28:34.179Z,1011.38
2018-05-12T05:29:34.179Z,1011.45
2018-05-12T05:30:34.178Z,1011.46
2018-05-12T05:31:34.179Z,1011.54
2018-05-12T05:32:34.204Z,1011.49
2018-05-12T05:33:35.096Z,1011.50
2018-05-12T05:34:34.200Z,1011.52
2018-05-12T05:35:34.201Z,1011.49
2018-05-12T05:36:34.197Z,1011.57
2018-05-12T05:37:34.200Z,1011.50
2018-05-12T05:38:34.210Z,1011.48
2018-05-12T05:39:34.217Z,1011.54
2018-05-12T05:40:34.208Z,1011.55
2018-05-12T05:41:34.285Z,1011.56
2018-05-12T05:42:34.227Z,1011.58
2018-05-12T05:43:34.218Z,1011.57
2018-05-12T05:44:34.230Z,1011.58
2018-05-12T05:45:34.231Z,1011.60
2018-05-12T05:46:34.247Z,1011.60
2018-05-12T05:47:34.290Z,1011.56
2018-05-12T05:48:34.285Z,1011.55
2018-05-12T05:49:34.268Z,1011.61
2018-05-12T05:50:34.250Z,1011.64
2018-05-12T05:51:34.258Z,1011.68
2018-05-12T05:52:34.260Z,1011.63
2018-05-12T05:53:34.255Z,1011.68
2018-05-12T05:54:34.253Z,1011.67
2018-05-12T05:55:34.294Z,1011.70
2018-05-12T05:56:34.263Z,1011.70
2018-05-12T05:57:34.262Z,1011.79
2018-05-12T05:58:35.153Z,1011.82
2018-05-12T05:59:34.273Z,1011.85
2018-05-12T06:00:34.278Z,1011.87
2018-05-12T06:01:34.296Z,1011.88
2018-05-12T06:02:34.280Z,1011.90
2018-05-12T06:03:34.290Z,1011.93
2018-05-12T06:04:34.301Z,1011.96
2018-05-12T06:05:34.311Z,1011.92
2018-05-12T06:06:34.310Z,1011.94
2018-05-12T06:07:34.301Z,1012.02
2018-05-12T06:08:34.305Z,1012.05
2018-05-12T06:09:34.309Z,1012.11
2018-05-12T06:10:34.318Z,1012.12
2018-05-12T06:11:34.333Z,1012.05
2018-05-12T06:12:34.322Z,1012.04
2018-05-12T06:13:34.328Z,1012.04
2018-05-12T06:14:34.335Z,1011.95
2018-05-12T06:15:34.356Z,1011.93
2018-05-12T06:16:34.340Z,1011.98
2018-05-12T06:17:34.370Z,1012.02
2018-05-12T06:18:34.370Z,1011.98
2018-05-12T06:19:34.369Z,1012.02
2018-05-12T06:20:34.373Z,1012.03
2018-05-12T06:21:34.369Z,1012.03
2018-05-12T06:22:34.425Z,1012.05
2018-05-12T06:23:34.411Z,1012.09
2018-05-12T06:24:34.447Z,1012.09
2018-05-12T06:25:34.405Z,1012.15
2018-05-12T06:26:34.404Z,1012.16
2018-05-12T06:27:34.405Z,1012.19
2018-05-12T06:28:34.429Z,1012.21
2018-05-12T06:29:34.428Z,1012.21
2018-05-12T06:30:34.431Z,1012.23
2018-05-12T06:31:34.443Z,1012.22
2018-05-12T06:32:34.447Z,1012.22
2018-05-12T06:33:34.523Z,1012.17
2018-05-12T06:34:34.517Z,1012.15
2018-05-12T06:35:34.479Z,1012.15
2018-05-12T06:36:34.475Z,1012.07
2018-05-12T06:37:34.513Z,1012.01
2018-05-12T06:38:34.492Z,1012.07
2018-05-12T06:39:34.538Z,1012.07
2018-05-12T06:40:34.510Z,1012.13
2018-05-12T06:41:34.518Z,1012.29
2018-05-12T06:42:34.518Z,1012.52
2018-05-12T06:43:34.532Z,1012.55
2018-05-12T06:44:34.616Z,1012.61
2018-05-12T06:45:34.540Z,1012.64
2018-05-12T06:46:34.575Z,1012.67
2018-05-12T06:47:34.892Z,1012.66
2018-05-12T06:48:34.562Z,1012.71
2018-05-12T06:49:34.612Z,1012.78
2018-05-12T06:50:34.609Z,1012.88
2018-05-12T06:51:34.589Z,1012.89
2018-05-12T06:52:34.596Z,1012.91
2018-05-12T06:53:34.610Z,1012.94
2018-05-12T06:54:35.137Z,1012.66
2018-05-12T06:55:34.646Z,1013.11
2018-05-12T06:56:34.638Z,1012.79
2018-05-12T06:57:34.652Z,1012.98
2018-05-12T06:58:34.669Z,1013.11
2018-05-12T06:59:34.671Z,1013.16
2018-05-12T07:00:34.676Z,1013.12
2018-05-12T07:01:34.688Z,1013.14
2018-05-12T07:02:34.694Z,1013.16
2018-05-12T07:03:34.705Z,1013.35
2018-05-12T07:04:34.714Z,1013.47
2018-05-12T07:05:34.716Z,1013.55
2018-05-12T07:06:34.744Z,1013.68
2018-05-12T07:07:35.646Z,1013.70
2018-05-12T07:08:34.738Z,1013.81
2018-05-12T07:09:34.757Z,1013.84
2018-05-12T07:10:34.776Z,1013.74
2018-05-12T07:11:34.778Z,1013.62
2018-05-12T07:12:34.783Z,1013.70
2018-05-12T07:13:34.794Z,1013.69
2018-05-12T07:14:34.795Z,1013.75
2018-05-12T07:15:34.816Z,1013.79
2018-05-12T07:16:34.848Z,1013.73
2018-05-12T07:17:34.844Z,1013.66
2018-05-12T07:18:34.847Z,1013.66
2018-05-12T07:19:34.852Z,1013.72
2018-05-12T07:20:34.868Z,1013.85
2018-05-12T07:21:34.881Z,1014.17
2018-05-12T07:22:34.895Z,1014.74
2018-05-12T07:23:34.900Z,1015.51
2018-05-12T07:24:34.938Z,1016.34
2018-05-12T07:25:34.960Z,1017.13
2018-05-12T07:26:34.941Z,1017.77
2018-05-12T07:27:34.952Z,1018.63
2018-05-12T07:28:34.953Z,1018.91
2018-05-12T07:29:35.056Z,1019.47
2018-05-12T07:30:35.025Z,1019.57
2018-05-12T07:31:35.009Z,1019.75
2018-05-12T07:32:35.025Z,1020.15
2018-05-12T07:33:35.023Z,1020.26
2018-05-12T07:34:35.046Z,1020.15
2018-05-12T07:35:35.036Z,1021.29
2018-05-12T07:36:35.060Z,1022.13
2018-05-12T07:37:35.065Z,1022.71
2018-05-12T07:38:35.082Z,1022.17
2018-05-12T07:39:35.091Z,1021.37
2018-05-12T07:40:35.111Z,1022.21
2018-05-12T07:41:35.157Z,1022.42
2018-05-12T07:42:35.227Z,1023.86
2018-05-12T07:43:35.161Z,1024.47
2018-05-12T07:44:35.163Z,1024.06
2018-05-12T07:45:35.226Z,1023.42
2018-05-12T07:46:35.212Z,1023.87
2018-05-12T07:47:35.225Z,1024.34
2018-05-12T07:48:35.249Z,1026.73
2018-05-12T07:49:35.241Z,1028.12
2018-05-12T07:50:35.241Z,1027.03
2018-05-12T07:51:35.298Z,1026.78
2018-05-12T07:52:35.279Z,1028.17
2018-05-12T07:53:35.308Z,1027.90
2018-05-12T07:54:35.289Z,1027.80
2018-05-12T07:55:35.309Z,1028.77
2018-05-12T07:56:35.343Z,1031.96
2018-05-12T07:57:35.357Z,1033.18
2018-05-12T07:58:35.366Z,1031.78
2018-05-12T07:59:35.377Z,1029.19
2018-05-12T08:00:35.397Z,1032.32
2018-05-12T08:01:35.387Z,1034.09
2018-05-12T08:02:35.420Z,1033.63
2018-05-12T08:03:35.443Z,1031.93
2018-05-12T08:04:35.451Z,1031.34
2018-05-12T08:05:35.478Z,1033.44
2018-05-12T08:06:35.474Z,1034.71
2018-05-12T08:07:35.523Z,1034.35
2018-05-12T08:08:35.510Z,1032.91
2018-05-12T08:09:35.532Z,1031.26
2018-05-12T08:10:35.537Z,1032.66
2018-05-12T08:11:35.569Z,1034.43
2018-05-12T08:12:35.559Z,1032.19
2018-05-12T08:13:35.610Z,1032.13
2018-05-12T08:14:35.599Z,1034.18
2018-05-12T08:15:35.624Z,1033.18
2018-05-12T08:16:35.627Z,1037.48
2018-05-12T08:17:35.649Z,1038.12
2018-05-12T08:18:35.661Z,1039.27
2018-05-12T08:19:35.709Z,1041.03
2018-05-12T08:20:35.816Z,1041.35
2018-05-12T08:21:35.713Z,1039.97
2018-05-12T08:22:35.732Z,1038.94
2018-05-12T08:23:35.743Z,1037.92
2018-05-12T08:24:35.890Z,1036.45
2018-05-12T08:25:35.781Z,1032.10
2018-05-12T08:26:35.819Z,1029.36
2018-05-12T08:27:35.828Z,1031.93
2018-05-12T08:28:35.829Z,1031.87
2018-05-12T08:29:35.858Z,1030.20
2018-05-12T08:30:35.872Z,1034.37
2018-05-12T08:31:35.939Z,1034.13
2018-05-12T08:32:35.948Z,1029.49
2018-05-12T08:33:35.924Z,1027.03
2018-05-12T08:34:35.964Z,1024.38
2018-05-12T08:35:35.980Z,1020.10
2018-05-12T08:36:36.031Z,1017.30
2018-05-12T08:37:36.010Z,1015.86
2018-05-12T08:38:36.028Z,1015.16
2018-05-12T08:39:36.037Z,1014.62
2018-05-12T08:40:36.175Z,1014.35
2018-05-12T08:41:36.202Z,1014.21
2018-05-12T08:42:36.101Z,1014.03
2018-05-12T08:43:36.149Z,1013.95
2018-05-12T08:44:36.157Z,1013.79
2018-05-12T08:45:36.156Z,1013.68
2018-05-12T08:46:36.175Z,1013.55
2018-05-12T08:47:36.192Z,1013.50
2018-05-12T08:48:36.212Z,1013.42
2018-05-12T08:49:36.224Z,1013.32
2018-05-12T08:50:36.287Z,1013.27
2018-05-12T08:51:36.281Z,1013.25
2018-05-12T08:52:36.282Z,1013.19
2018-05-12T08:53:36.330Z,1013.15
2018-05-12T08:54:36.339Z,1013.04
2018-05-12T08:55:36.360Z,1012.99
2018-05-12T08:56:36.357Z,1012.96
2018-05-12T08:57:36.378Z,1012.90
2018-05-12T08:58:36.423Z,1012.84
2018-05-12T08:59:36.428Z,1012.87
2018-05-12T09:00:36.441Z,1012.84
2018-05-12T09:01:36.541Z,1012.82
2018-05-12T09:02:36.478Z,1012.85
2018-05-12T09:03:36.506Z,1012.83
2018-05-12T09:04:36.535Z,1012.79
2018-05-12T09:05:36.582Z,1012.75
2018-05-12T09:06:36.561Z,1012.68
2018-05-12T09:07:36.581Z,1012.70
2018-05-12T09:08:36.623Z,1012.68
2018-05-12T09:09:36.627Z,1012.62
2018-05-12T09:10:36.658Z,1012.60
2018-05-12T09:11:36.663Z,1012.62
2018-05-12T09:12:36.677Z,1012.51
2018-05-12T09:13:36.847Z,1012.54
2018-05-12T09:14:36.723Z,1012.52
2018-05-12T09:15:36.750Z,1012.47
2018-05-12T09:16:36.761Z,1012.48
2018-05-12T09:17:36.802Z,1012.43
2018-05-12T09:18:36.804Z,1012.44
2018-05-12T09:19:36.822Z,1012.28
2018-05-12T09:20:36.846Z,1012.22
2018-05-12T09:21:36.865Z,1012.17
2018-05-12T09:22:36.892Z,1012.32
2018-05-12T09:23:36.905Z,1012.43
2018-05-12T09:24:36.935Z,1012.39
2018-05-12T09:25:37.041Z,1012.47
2018-05-12T09:26:37.011Z,1012.56
2018-05-12T09:27:36.996Z,1012.70
2018-05-12T09:28:37.008Z,1014.07
2018-05-12T09:29:37.041Z,1017.38
2018-05-12T09:30:37.077Z,1017.16
2018-05-12T09:31:37.079Z,1014.74
2018-05-12T09:32:37.101Z,1013.63
2018-05-12T09:33:37.111Z,1013.06
2018-05-12T09:34:37.139Z,1012.74
2018-05-12T09:35:37.158Z,1012.61
2018-05-12T09:36:37.221Z,1012.46
2018-05-12T09:37:37.207Z,1012.39
2018-05-12T09:38:37.242Z,1012.27
2018-05-12T09:39:37.245Z,1012.30
2018-05-12T09:40:38.256Z,1012.01
2018-05-12T09:41:37.294Z,1011.94
2018-05-12T09:42:37.356Z,1012.02
2018-05-12T09:43:37.358Z,1011.74
2018-05-12T09:44:37.372Z,1011.64
2018-05-12T09:45:37.442Z,1011.90
2018-05-12T09:46:37.396Z,1012.05
2018-05-12T09:47:37.420Z,1012.10
2018-05-12T09:48:37.434Z,1012.06
2018-05-12T09:49:37.463Z,1012.04
2018-05-12T09:50:37.487Z,1011.97
2018-05-12T09:51:37.730Z,1011.97
2018-05-12T09:52:37.520Z,1011.81
2018-05-12T09:53:37.550Z,1011.96
2018-05-12T09:54:37.560Z,1011.92
2018-05-12T09:55:37.585Z,1011.91
2018-05-12T09:56:37.606Z,1011.82
2018-05-12T09:57:37.688Z,1011.76
2018-05-12T09:58:37.660Z,1011.61
2018-05-12T09:59:37.680Z,1011.63
2018-05-12T10:00:37.701Z,1011.64
2018-05-12T10:01:37.720Z,1011.59
2018-05-12T10:02:37.799Z,1011.08
2018-05-12T10:03:37.765Z,1011.25
2018-05-12T10:04:37.788Z,1011.63
2018-05-12T10:05:37.810Z,1011.61
2018-05-12T10:06:37.845Z,1011.57
2018-05-12T10:07:37.865Z,1011.62
2018-05-12T10:08:37.868Z,1011.60
2018-05-12T10:09:38.783Z,1011.54
2018-05-12T10:10:37.919Z,1011.55
2018-05-12T10:11:37.936Z,1011.53
2018-05-12T10:12:37.972Z,1011.50
2018-05-12T10:13:37.983Z,1011.52
2018-05-12T10:14:37.998Z,1011.50
2018-05-12T10:15:38.133Z,1011.08
2018-05-12T10:16:38.067Z,1011.17
2018-05-12T10:17:38.061Z,1011.00
2018-05-12T10:18:38.093Z,1010.94
2018-05-12T10:19:38.229Z,1011.11
2018-05-12T10:20:38.146Z,1011.41
2018-05-12T10:21:38.151Z,1011.09
2018-05-12T10:22:38.162Z,1011.08
2018-05-12T10:23:38.198Z,1011.45
2018-05-12T10:24:38.249Z,1011.34
2018-05-12T10:25:38.225Z,1011.54
2018-05-12T10:26:38.239Z,1011.17
2018-05-12T10:27:38.264Z,1011.38
2018-05-12T10:28:38.273Z,1011.10
2018-05-12T10:29:38.317Z,1011.42
2018-05-12T10:30:38.312Z,1011.41
2018-05-12T10:31:38.335Z,1011.35
2018-05-12T10:32:38.358Z,1011.44
2018-05-12T10:33:38.367Z,1011.35
2018-05-12T10:34:38.416Z,1011.42
2018-05-12T10:35:38.405Z,1011.31
2018-05-12T10:36:38.428Z,1011.33
2018-05-12T10:37:38.467Z,1011.20
2018-05-12T10:38:38.470Z,1011.14
2018-05-12T10:39:38.492Z,1011.10
2018-05-12T10:40:38.501Z,1010.80
2018-05-12T10:41:38.519Z,1010.74
2018-05-12T10:42:38.559Z,1010.76
2018-05-12T10:43:38.543Z,1010.78
2018-05-12T10:44:38.558Z,1010.75
2018-05-12T10:45:38.585Z,1010.72
2018-05-12T10:46:38.611Z,1010.74
2018-05-12T10:47:38.613Z,1010.73
2018-05-12T10:48:39.283Z,1010.77
2018-05-12T10:49:38.652Z,1010.76
2018-05-12T10:50:38.706Z,1010.69
2018-05-12T10:51:38.673Z,1010.73
2018-05-12T10:52:38.706Z,1010.62
2018-05-12T10:53:38.708Z,1010.57
2018-05-12T10:54:38.718Z,1010.55
2018-05-12T10:55:38.738Z,1010.53
2018-05-12T10:56:38.749Z,1010.49
2018-05-12T10:57:38.770Z,1010.45
2018-05-12T10:58:38.782Z,1010.52
2018-05-12T10:59:38.808Z,1010.46
2018-05-12T11:00:38.806Z,1010.44
2018-05-12T11:01:39.298Z,1010.39
2018-05-12T11:02:38.838Z,1010.40
2018-05-12T11:03:38.851Z,1010.34
2018-05-12T11:04:38.871Z,1010.32
2018-05-12T11:05:38.891Z,1010.29
2018-05-12T11:06:38.877Z,1010.30
2018-05-12T11:07:38.892Z,1010.33
2018-05-12T11:08:38.913Z,1010.34
2018-05-12T11:09:38.977Z,1010.32
2018-05-12T11:10:38.930Z,1010.32
2018-05-12T11:11:38.943Z,1010.34
2018-05-12T11:12:38.952Z,1010.29
2018-05-12T11:13:38.967Z,1010.32
2018-05-12T11:14:38.983Z,1010.23
2018-05-12T11:15:38.998Z,1010.28
2018-05-12T11:16:39.008Z,1010.26
2018-05-12T11:17:39.014Z,1010.30
2018-05-12T11:18:39.024Z,1010.24
2018-05-12T11:19:39.041Z,1010.29
2018-05-12T11:20:39.043Z,1010.24
2018-05-12T11:21:39.093Z,1010.17
2018-05-12T11:22:39.062Z,1010.16
2018-05-12T11:23:39.082Z,1010.32
2018-05-12T11:24:39.101Z,1010.18
2018-05-12T11:25:39.107Z,1010.17
2018-05-12T11:26:39.127Z,1010.10
2018-05-12T11:27:39.120Z,1010.06
2018-05-12T11:28:39.128Z,1010.09
2018-05-12T11:29:39.152Z,1010.11
2018-05-12T11:30:39.148Z,1010.12
2018-05-12T11:31:39.171Z,1010.08
2018-05-12T11:32:39.170Z,1010.04
2018-05-12T11:33:39.189Z,1010.05
2018-05-12T11:34:39.222Z,1010.02
2018-05-12T11:35:39.211Z,1009.98
2018-05-12T11:36:39.245Z,1009.93
2018-05-12T11:37:39.232Z,1009.93
2018-05-12T11:38:39.302Z,1009.93
2018-05-12T11:39:39.265Z,1009.93
2018-05-12T11:40:39.271Z,1009.97
2018-05-12T11:41:39.280Z,1009.92
2018-05-12T11:42:39.287Z,1009.92
2018-05-12T11:43:39.345Z,1009.90
2018-05-12T11:44:39.475Z,1009.87
2018-05-12T11:45:39.338Z,1009.85
2018-05-12T11:46:39.320Z,1009.86
2018-05-12T11:47:39.341Z,1009.84
2018-05-12T11:48:39.332Z,1009.82
2018-05-12T11:49:39.393Z,1009.79
2018-05-12T11:50:39.433Z,1009.75
2018-05-12T11:51:39.370Z,1009.79
2018-05-12T11:52:39.377Z,1009.86
2018-05-12T11:53:39.393Z,1009.83
2018-05-12T11:54:39.393Z,1009.80
2018-05-12T11:55:39.408Z,1009.78
2018-05-12T11:56:39.443Z,1009.77
2018-05-12T11:57:39.444Z,1009.72
2018-05-12T11:58:39.453Z,1009.68
2018-05-12T11:59:40.329Z,1009.64
2018-05-12T12:00:39.462Z,1009.59
2018-05-12T12:01:39.512Z,1009.61
2018-05-12T12:02:39.502Z,1009.61
2018-05-12T12:03:39.558Z,1009.59
2018-05-12T12:04:39.496Z,1009.58
2018-05-12T12:05:39.499Z,1009.62